Terminal Aerodrome Forecast
Issued by NWS

Home | Current Version | Previous Version | Text Only | Print | Product List | Glossary On
Versions: 1 2 3 4 5 6 7 8 9 10 11 12 13
551
FTUS45 KTFX 050537
TAFBZN
TAF
KBZN 050537Z 0506/0606 15008KT P6SM BKN180
     FM051400 26011KT P6SM BKN150
     FM060200 VRB06KT P6SM BKN120=

USA.gov is the U.S. government's official web portal to all federal, state and local government web resources and services.